sensor_id;sensor_type;location;lat;lon;timestamp;P1;durP1;ratioP1;P2;durP2;ratioP2
8419;SDS011;4247;48.550;8.822;2023-02-17T00:01:08;8.43;;;3.40;;
8419;SDS011;4247;48.550;8.822;2023-02-17T00:03:39;7.83;;;3.53;;
8419;SDS011;4247;48.550;8.822;2023-02-17T00:06:06;4.30;;;2.70;;
8419;SDS011;4247;48.550;8.822;2023-02-17T00:08:33;12.70;;;4.80;;
8419;SDS011;4247;48.550;8.822;2023-02-17T00:11:01;14.57;;;6.03;;
8419;SDS011;4247;48.550;8.822;2023-02-17T00:13:31;10.67;;;5.23;;
8419;SDS011;4247;48.550;8.822;2023-02-17T00:15:58;8.73;;;4.13;;
8419;SDS011;4247;48.550;8.822;2023-02-17T00:18:27;9.20;;;4.07;;
8419;SDS011;4247;48.550;8.822;2023-02-17T00:20:54;2.80;;;2.23;;
8419;SDS011;4247;48.550;8.822;2023-02-17T00:23:21;5.23;;;2.93;;
8419;SDS011;4247;48.550;8.822;2023-02-17T00:25:51;4.73;;;2.43;;
8419;SDS011;4247;48.550;8.822;2023-02-17T00:28:18;3.00;;;2.23;;
8419;SDS011;4247;48.550;8.822;2023-02-17T00:30:48;2.30;;;1.80;;
8419;SDS011;4247;48.550;8.822;2023-02-17T00:33:15;2.90;;;2.00;;
8419;SDS011;4247;48.550;8.822;2023-02-17T00:35:43;6.30;;;2.83;;
8419;SDS011;4247;48.550;8.822;2023-02-17T00:38:10;4.30;;;2.47;;
8419;SDS011;4247;48.550;8.822;2023-02-17T00:40:37;2.43;;;2.17;;
8419;SDS011;4247;48.550;8.822;2023-02-17T00:43:09;5.40;;;2.40;;
8419;SDS011;4247;48.550;8.822;2023-02-17T00:45:38;3.33;;;2.23;;
8419;SDS011;4247;48.550;8.822;2023-02-17T00:48:05;4.07;;;1.90;;
8419;SDS011;4247;48.550;8.822;2023-02-17T00:50:32;4.47;;;2.80;;
8419;SDS011;4247;48.550;8.822;2023-02-17T00:53:03;4.23;;;2.63;;
8419;SDS011;4247;48.550;8.822;2023-02-17T00:55:30;3.10;;;2.40;;
8419;SDS011;4247;48.550;8.822;2023-02-17T00:57:59;2.77;;;1.80;;
8419;SDS011;4247;48.550;8.822;2023-02-17T01:00:26;5.63;;;2.30;;
8419;SDS011;4247;48.550;8.822;2023-02-17T01:02:53;4.73;;;2.80;;
8419;SDS011;4247;48.550;8.822;2023-02-17T01:05:20;3.47;;;2.10;;
8419;SDS011;4247;48.550;8.822;2023-02-17T01:07:47;3.63;;;1.90;;
8419;SDS011;4247;48.550;8.822;2023-02-17T01:10:16;6.70;;;1.77;;
8419;SDS011;4247;48.550;8.822;2023-02-17T01:12:43;1.47;;;1.20;;
8419;SDS011;4247;48.550;8.822;2023-02-17T01:15:10;2.33;;;1.43;;
8419;SDS011;4247;48.550;8.822;2023-02-17T01:17:40;2.00;;;1.87;;
8419;SDS011;4247;48.550;8.822;2023-02-17T01:20:07;2.57;;;1.50;;
8419;SDS011;4247;48.550;8.822;2023-02-17T01:22:36;2.80;;;1.27;;
8419;SDS011;4247;48.550;8.822;2023-02-17T01:25:04;3.77;;;1.73;;
8419;SDS011;4247;48.550;8.822;2023-02-17T01:27:33;5.10;;;1.90;;
8419;SDS011;4247;48.550;8.822;2023-02-17T01:30:01;4.13;;;1.53;;
8419;SDS011;4247;48.550;8.822;2023-02-17T01:32:28;4.73;;;1.43;;
8419;SDS011;4247;48.550;8.822;2023-02-17T01:34:57;3.80;;;2.00;;
8419;SDS011;4247;48.550;8.822;2023-02-17T01:37:24;3.27;;;1.57;;
8419;SDS011;4247;48.550;8.822;2023-02-17T01:39:51;4.47;;;1.80;;
8419;SDS011;4247;48.550;8.822;2023-02-17T01:42:19;3.20;;;1.60;;
8419;SDS011;4247;48.550;8.822;2023-02-17T01:47:58;3.30;;;1.60;;
8419;SDS011;4247;48.550;8.822;2023-02-17T01:50:29;1.27;;;1.17;;
8419;SDS011;4247;48.550;8.822;2023-02-17T01:52:59;1.73;;;1.23;;
8419;SDS011;4247;48.550;8.822;2023-02-17T01:55:32;2.27;;;1.50;;
8419;SDS011;4247;48.550;8.822;2023-02-17T01:58:03;3.60;;;1.33;;
8419;SDS011;4247;48.550;8.822;2023-02-17T02:00:38;4.87;;;1.50;;
8419;SDS011;4247;48.550;8.822;2023-02-17T02:03:07;1.20;;;1.10;;
8419;SDS011;4247;48.550;8.822;2023-02-17T02:05:37;1.70;;;1.10;;
8419;SDS011;4247;48.550;8.822;2023-02-17T02:08:07;1.90;;;1.27;;
8419;SDS011;4247;48.550;8.822;2023-02-17T02:10:36;1.70;;;1.37;;
8419;SDS011;4247;48.550;8.822;2023-02-17T02:13:03;2.53;;;1.30;;
8419;SDS011;4247;48.550;8.822;2023-02-17T02:15:32;1.80;;;1.40;;
8419;SDS011;4247;48.550;8.822;2023-02-17T02:18:11;1.20;;;1.10;;
8419;SDS011;4247;48.550;8.822;2023-02-17T02:24:14;1.90;;;1.20;;
8419;SDS011;4247;48.550;8.822;2023-02-17T02:26:55;3.60;;;1.73;;
8419;SDS011;4247;48.550;8.822;2023-02-17T02:29:57;3.93;;;1.70;;
8419;SDS011;4247;48.550;8.822;2023-02-17T02:32:50;2.70;;;1.33;;
8419;SDS011;4247;48.550;8.822;2023-02-17T02:35:28;3.83;;;1.77;;
8419;SDS011;4247;48.550;8.822;2023-02-17T02:38:02;3.10;;;1.40;;
8419;SDS011;4247;48.550;8.822;2023-02-17T02:40:33;5.40;;;1.83;;
8419;SDS011;4247;48.550;8.822;2023-02-17T02:43:02;1.97;;;1.77;;
8419;SDS011;4247;48.550;8.822;2023-02-17T02:45:33;3.63;;;1.60;;
8419;SDS011;4247;48.550;8.822;2023-02-17T02:48:03;3.23;;;1.47;;
8419;SDS011;4247;48.550;8.822;2023-02-17T02:50:38;1.43;;;1.20;;
8419;SDS011;4247;48.550;8.822;2023-02-17T02:53:33;10.43;;;2.07;;
8419;SDS011;4247;48.550;8.822;2023-02-17T02:56:39;2.87;;;1.63;;
8419;SDS011;4247;48.550;8.822;2023-02-17T02:59:17;5.60;;;1.47;;
8419;SDS011;4247;48.550;8.822;2023-02-17T03:01:53;1.33;;;1.10;;
8419;SDS011;4247;48.550;8.822;2023-02-17T03:04:31;2.90;;;1.80;;
8419;SDS011;4247;48.550;8.822;2023-02-17T03:07:04;2.70;;;1.70;;
8419;SDS011;4247;48.550;8.822;2023-02-17T03:09:36;3.93;;;1.83;;
8419;SDS011;4247;48.550;8.822;2023-02-17T03:12:04;2.17;;;1.60;;
8419;SDS011;4247;48.550;8.822;2023-02-17T03:14:35;6.60;;;1.93;;
8419;SDS011;4247;48.550;8.822;2023-02-17T03:17:10;2.73;;;1.50;;
8419;SDS011;4247;48.550;8.822;2023-02-17T03:19:41;3.57;;;1.60;;
8419;SDS011;4247;48.550;8.822;2023-02-17T03:22:13;4.73;;;1.50;;
8419;SDS011;4247;48.550;8.822;2023-02-17T03:24:44;4.40;;;1.80;;
8419;SDS011;4247;48.550;8.822;2023-02-17T03:27:11;4.23;;;1.37;;
8419;SDS011;4247;48.550;8.822;2023-02-17T03:29:38;5.60;;;1.40;;
8419;SDS011;4247;48.550;8.822;2023-02-17T03:32:05;1.47;;;1.20;;
8419;SDS011;4247;48.550;8.822;2023-02-17T03:34:33;1.73;;;1.20;;
8419;SDS011;4247;48.550;8.822;2023-02-17T03:37:03;2.27;;;1.50;;
8419;SDS011;4247;48.550;8.822;2023-02-17T03:39:30;2.33;;;1.57;;
8419;SDS011;4247;48.550;8.822;2023-02-17T03:41:57;5.33;;;1.90;;
8419;SDS011;4247;48.550;8.822;2023-02-17T03:44:24;5.63;;;1.60;;
8419;SDS011;4247;48.550;8.822;2023-02-17T03:46:51;3.77;;;1.73;;
8419;SDS011;4247;48.550;8.822;2023-02-17T03:49:18;1.77;;;1.53;;
8419;SDS011;4247;48.550;8.822;2023-02-17T03:51:45;2.53;;;1.73;;
8419;SDS011;4247;48.550;8.822;2023-02-17T03:54:14;5.43;;;2.13;;
8419;SDS011;4247;48.550;8.822;2023-02-17T03:56:41;2.53;;;1.53;;
8419;SDS011;4247;48.550;8.822;2023-02-17T03:59:11;3.20;;;1.13;;
8419;SDS011;4247;48.550;8.822;2023-02-17T04:01:38;2.57;;;1.60;;
8419;SDS011;4247;48.550;8.822;2023-02-17T04:04:07;3.83;;;1.73;;
8419;SDS011;4247;48.550;8.822;2023-02-17T04:06:35;4.43;;;1.90;;
8419;SDS011;4247;48.550;8.822;2023-02-17T04:09:04;1.67;;;1.57;;
8419;SDS011;4247;48.550;8.822;2023-02-17T04:11:32;1.73;;;1.50;;
8419;SDS011;4247;48.550;8.822;2023-02-17T04:14:02;4.73;;;1.47;;
8419;SDS011;4247;48.550;8.822;2023-02-17T04:16:30;3.73;;;1.57;;
8419;SDS011;4247;48.550;8.822;2023-02-17T04:18:57;5.23;;;1.67;;
8419;SDS011;4247;48.550;8.822;2023-02-17T04:21:24;4.13;;;1.70;;
8419;SDS011;4247;48.550;8.822;2023-02-17T04:23:51;3.43;;;1.60;;
8419;SDS011;4247;48.550;8.822;2023-02-17T04:26:19;1.50;;;1.30;;
8419;SDS011;4247;48.550;8.822;2023-02-17T04:28:49;4.57;;;3.27;;
8419;SDS011;4247;48.550;8.822;2023-02-17T04:31:17;6.30;;;1.80;;
8419;SDS011;4247;48.550;8.822;2023-02-17T04:33:44;2.17;;;1.63;;
8419;SDS011;4247;48.550;8.822;2023-02-17T04:36:11;5.57;;;2.30;;
8419;SDS011;4247;48.550;8.822;2023-02-17T04:38:38;1.70;;;1.60;;
8419;SDS011;4247;48.550;8.822;2023-02-17T04:41:10;3.97;;;1.70;;
8419;SDS011;4247;48.550;8.822;2023-02-17T04:43:42;1.53;;;1.43;;
8419;SDS011;4247;48.550;8.822;2023-02-17T04:46:12;3.40;;;1.77;;
8419;SDS011;4247;48.550;8.822;2023-02-17T04:48:39;2.30;;;1.50;;
8419;SDS011;4247;48.550;8.822;2023-02-17T04:51:06;3.00;;;1.37;;
8419;SDS011;4247;48.550;8.822;2023-02-17T04:53:33;1.90;;;1.40;;
8419;SDS011;4247;48.550;8.822;2023-02-17T04:56:00;5.77;;;1.60;;
8419;SDS011;4247;48.550;8.822;2023-02-17T04:58:31;2.37;;;1.87;;
8419;SDS011;4247;48.550;8.822;2023-02-17T05:00:58;2.67;;;1.67;;
8419;SDS011;4247;48.550;8.822;2023-02-17T05:03:27;4.27;;;2.10;;
8419;SDS011;4247;48.550;8.822;2023-02-17T05:05:54;3.10;;;1.90;;
8419;SDS011;4247;48.550;8.822;2023-02-17T05:08:21;3.03;;;1.27;;
8419;SDS011;4247;48.550;8.822;2023-02-17T05:10:49;3.03;;;1.67;;
8419;SDS011;4247;48.550;8.822;2023-02-17T05:13:16;6.93;;;1.93;;
8419;SDS011;4247;48.550;8.822;2023-02-17T05:15:44;4.03;;;2.33;;
8419;SDS011;4247;48.550;8.822;2023-02-17T05:18:12;4.57;;;1.80;;
8419;SDS011;4247;48.550;8.822;2023-02-17T05:20:41;3.33;;;1.87;;
8419;SDS011;4247;48.550;8.822;2023-02-17T05:23:11;5.13;;;1.53;;
8419;SDS011;4247;48.550;8.822;2023-02-17T05:25:38;9.53;;;1.73;;
8419;SDS011;4247;48.550;8.822;2023-02-17T05:28:05;2.20;;;1.43;;
8419;SDS011;4247;48.550;8.822;2023-02-17T05:30:35;1.97;;;1.70;;
8419;SDS011;4247;48.550;8.822;2023-02-17T05:33:06;3.30;;;1.30;;
8419;SDS011;4247;48.550;8.822;2023-02-17T05:35:33;2.13;;;1.40;;
8419;SDS011;4247;48.550;8.822;2023-02-17T05:38:05;1.67;;;1.30;;
8419;SDS011;4247;48.550;8.822;2023-02-17T05:40:32;10.23;;;1.57;;
8419;SDS011;4247;48.550;8.822;2023-02-17T05:43:00;4.20;;;1.20;;
8419;SDS011;4247;48.550;8.822;2023-02-17T05:45:29;3.03;;;1.40;;
8419;SDS011;4247;48.550;8.822;2023-02-17T05:47:56;6.23;;;1.97;;
8419;SDS011;4247;48.550;8.822;2023-02-17T05:50:23;6.20;;;1.67;;
8419;SDS011;4247;48.550;8.822;2023-02-17T05:52:50;1.10;;;1.00;;
8419;SDS011;4247;48.550;8.822;2023-02-17T05:55:19;5.43;;;1.80;;
8419;SDS011;4247;48.550;8.822;2023-02-17T05:57:46;1.50;;;1.00;;
8419;SDS011;4247;48.550;8.822;2023-02-17T06:00:14;2.00;;;1.50;;
8419;SDS011;4247;48.550;8.822;2023-02-17T06:02:43;4.73;;;1.50;;
8419;SDS011;4247;48.550;8.822;2023-02-17T06:05:11;1.90;;;1.00;;
8419;SDS011;4247;48.550;8.822;2023-02-17T06:07:39;2.60;;;1.20;;
8419;SDS011;4247;48.550;8.822;2023-02-17T06:10:08;2.10;;;1.20;;
8419;SDS011;4247;48.550;8.822;2023-02-17T06:12:36;1.20;;;0.73;;
8419;SDS011;4247;48.550;8.822;2023-02-17T06:15:05;3.47;;;1.50;;
8419;SDS011;4247;48.550;8.822;2023-02-17T06:17:41;4.83;;;1.10;;
8419;SDS011;4247;48.550;8.822;2023-02-17T06:20:08;4.30;;;0.97;;
8419;SDS011;4247;48.550;8.822;2023-02-17T06:22:36;1.60;;;1.40;;
8419;SDS011;4247;48.550;8.822;2023-02-17T06:25:03;1.87;;;1.30;;
8419;SDS011;4247;48.550;8.822;2023-02-17T06:27:31;1.43;;;1.10;;
8419;SDS011;4247;48.550;8.822;2023-02-17T06:30:03;1.67;;;1.57;;
8419;SDS011;4247;48.550;8.822;2023-02-17T06:32:31;3.77;;;1.33;;
8419;SDS011;4247;48.550;8.822;2023-02-17T06:35:00;3.07;;;1.00;;
8419;SDS011;4247;48.550;8.822;2023-02-17T06:37:27;3.77;;;1.13;;
8419;SDS011;4247;48.550;8.822;2023-02-17T06:39:54;1.90;;;1.10;;
8419;SDS011;4247;48.550;8.822;2023-02-17T06:42:21;2.27;;;1.20;;
8419;SDS011;4247;48.550;8.822;2023-02-17T06:44:49;5.37;;;1.47;;
8419;SDS011;4247;48.550;8.822;2023-02-17T06:47:18;6.30;;;1.63;;
8419;SDS011;4247;48.550;8.822;2023-02-17T06:49:45;3.60;;;1.30;;
8419;SDS011;4247;48.550;8.822;2023-02-17T06:52:12;1.10;;;1.00;;
8419;SDS011;4247;48.550;8.822;2023-02-17T06:54:42;4.00;;;1.20;;
8419;SDS011;4247;48.550;8.822;2023-02-17T06:57:14;2.60;;;1.20;;
8419;SDS011;4247;48.550;8.822;2023-02-17T06:59:41;3.07;;;1.07;;
8419;SDS011;4247;48.550;8.822;2023-02-17T07:02:08;2.07;;;1.13;;
8419;SDS011;4247;48.550;8.822;2023-02-17T07:04:38;1.33;;;1.13;;
8419;SDS011;4247;48.550;8.822;2023-02-17T07:07:06;1.97;;;1.37;;
8419;SDS011;4247;48.550;8.822;2023-02-17T07:09:39;3.97;;;1.30;;
8419;SDS011;4247;48.550;8.822;2023-02-17T07:12:06;2.47;;;1.30;;
8419;SDS011;4247;48.550;8.822;2023-02-17T07:14:34;4.90;;;1.97;;
8419;SDS011;4247;48.550;8.822;2023-02-17T07:17:07;2.50;;;0.90;;
8419;SDS011;4247;48.550;8.822;2023-02-17T07:19:34;3.33;;;1.50;;
8419;SDS011;4247;48.550;8.822;2023-02-17T07:22:03;1.60;;;1.40;;
8419;SDS011;4247;48.550;8.822;2023-02-17T07:24:30;2.93;;;1.27;;
8419;SDS011;4247;48.550;8.822;2023-02-17T07:26:58;1.30;;;0.93;;
8419;SDS011;4247;48.550;8.822;2023-02-17T07:29:25;1.63;;;1.20;;
8419;SDS011;4247;48.550;8.822;2023-02-17T07:31:52;2.73;;;1.00;;
8419;SDS011;4247;48.550;8.822;2023-02-17T07:34:19;1.93;;;1.40;;
8419;SDS011;4247;48.550;8.822;2023-02-17T07:36:46;4.33;;;1.27;;
8419;SDS011;4247;48.550;8.822;2023-02-17T07:39:18;3.57;;;1.80;;
8419;SDS011;4247;48.550;8.822;2023-02-17T07:41:45;2.97;;;1.40;;
8419;SDS011;4247;48.550;8.822;2023-02-17T07:44:12;2.57;;;1.53;;
8419;SDS011;4247;48.550;8.822;2023-02-17T07:46:39;1.93;;;1.40;;
8419;SDS011;4247;48.550;8.822;2023-02-17T07:49:06;4.80;;;1.73;;
8419;SDS011;4247;48.550;8.822;2023-02-17T07:51:33;3.23;;;1.30;;
8419;SDS011;4247;48.550;8.822;2023-02-17T07:54:06;2.10;;;1.43;;
8419;SDS011;4247;48.550;8.822;2023-02-17T07:56:38;2.67;;;1.30;;
8419;SDS011;4247;48.550;8.822;2023-02-17T07:59:08;5.43;;;1.90;;
8419;SDS011;4247;48.550;8.822;2023-02-17T08:01:36;2.03;;;1.83;;
8419;SDS011;4247;48.550;8.822;2023-02-17T08:04:06;2.03;;;1.63;;
8419;SDS011;4247;48.550;8.822;2023-02-17T08:06:33;9.27;;;1.60;;
8419;SDS011;4247;48.550;8.822;2023-02-17T08:09:00;5.77;;;1.80;;
8419;SDS011;4247;48.550;8.822;2023-02-17T08:11:49;4.33;;;1.60;;
8419;SDS011;4247;48.550;8.822;2023-02-17T08:14:33;2.77;;;1.00;;
8419;SDS011;4247;48.550;8.822;2023-02-17T08:17:01;3.07;;;1.53;;
8419;SDS011;4247;48.550;8.822;2023-02-17T08:19:28;1.60;;;1.50;;
8419;SDS011;4247;48.550;8.822;2023-02-17T08:21:55;2.07;;;1.40;;
8419;SDS011;4247;48.550;8.822;2023-02-17T08:24:22;2.60;;;1.77;;
8419;SDS011;4247;48.550;8.822;2023-02-17T08:26:53;2.83;;;2.00;;
8419;SDS011;4247;48.550;8.822;2023-02-17T08:29:21;1.53;;;1.43;;
8419;SDS011;4247;48.550;8.822;2023-02-17T08:31:50;2.43;;;1.57;;
8419;SDS011;4247;48.550;8.822;2023-02-17T08:34:18;3.27;;;1.53;;
8419;SDS011;4247;48.550;8.822;2023-02-17T08:36:45;3.10;;;1.40;;
8419;SDS011;4247;48.550;8.822;2023-02-17T08:39:13;1.77;;;1.30;;
8419;SDS011;4247;48.550;8.822;2023-02-17T08:41:42;4.10;;;1.23;;
8419;SDS011;4247;48.550;8.822;2023-02-17T08:44:13;2.93;;;1.17;;
8419;SDS011;4247;48.550;8.822;2023-02-17T08:46:45;2.23;;;1.80;;
8419;SDS011;4247;48.550;8.822;2023-02-17T08:49:13;2.47;;;1.87;;
8419;SDS011;4247;48.550;8.822;2023-02-17T08:51:41;2.73;;;1.77;;
8419;SDS011;4247;48.550;8.822;2023-02-17T08:54:09;1.47;;;1.37;;
8419;SDS011;4247;48.550;8.822;2023-02-17T08:56:40;3.47;;;1.30;;
8419;SDS011;4247;48.550;8.822;2023-02-17T08:59:07;2.57;;;1.80;;
8419;SDS011;4247;48.550;8.822;2023-02-17T09:01:39;1.97;;;1.40;;
8419;SDS011;4247;48.550;8.822;2023-02-17T09:04:07;1.07;;;1.00;;
8419;SDS011;4247;48.550;8.822;2023-02-17T09:06:36;3.17;;;1.63;;
8419;SDS011;4247;48.550;8.822;2023-02-17T09:09:04;3.53;;;1.30;;
8419;SDS011;4247;48.550;8.822;2023-02-17T09:11:33;1.40;;;1.20;;
8419;SDS011;4247;48.550;8.822;2023-02-17T09:14:00;1.63;;;1.03;;
8419;SDS011;4247;48.550;8.822;2023-02-17T09:16:28;3.77;;;0.87;;
8419;SDS011;4247;48.550;8.822;2023-02-17T09:18:57;2.43;;;1.60;;
8419;SDS011;4247;48.550;8.822;2023-02-17T09:21:24;1.43;;;1.33;;
8419;SDS011;4247;48.550;8.822;2023-02-17T09:23:51;3.70;;;1.53;;
8419;SDS011;4247;48.550;8.822;2023-02-17T09:26:18;7.30;;;2.50;;
8419;SDS011;4247;48.550;8.822;2023-02-17T09:28:45;4.73;;;2.43;;
8419;SDS011;4247;48.550;8.822;2023-02-17T09:31:14;3.33;;;1.13;;
8419;SDS011;4247;48.550;8.822;2023-02-17T09:33:43;1.93;;;1.20;;
8419;SDS011;4247;48.550;8.822;2023-02-17T09:36:14;2.63;;;1.37;;
8419;SDS011;4247;48.550;8.822;2023-02-17T09:38:42;1.30;;;1.10;;
8419;SDS011;4247;48.550;8.822;2023-02-17T09:41:13;2.63;;;1.20;;
8419;SDS011;4247;48.550;8.822;2023-02-17T09:43:46;2.33;;;1.10;;
8419;SDS011;4247;48.550;8.822;2023-02-17T09:46:18;4.43;;;1.20;;
8419;SDS011;4247;48.550;8.822;2023-02-17T09:48:51;4.83;;;1.20;;
8419;SDS011;4247;48.550;8.822;2023-02-17T09:51:34;1.80;;;1.07;;
8419;SDS011;4247;48.550;8.822;2023-02-17T09:54:09;2.23;;;1.10;;
8419;SDS011;4247;48.550;8.822;2023-02-17T09:56:41;1.10;;;0.90;;
8419;SDS011;4247;48.550;8.822;2023-02-17T09:59:13;3.37;;;1.00;;
8419;SDS011;4247;48.550;8.822;2023-02-17T10:01:46;3.03;;;1.20;;
8419;SDS011;4247;48.550;8.822;2023-02-17T10:04:21;2.63;;;1.10;;
8419;SDS011;4247;48.550;8.822;2023-02-17T10:06:55;3.60;;;1.10;;
8419;SDS011;4247;48.550;8.822;2023-02-17T10:09:27;1.00;;;0.90;;
8419;SDS011;4247;48.550;8.822;2023-02-17T10:11:59;1.17;;;1.07;;
8419;SDS011;4247;48.550;8.822;2023-02-17T10:14:32;5.20;;;1.30;;
8419;SDS011;4247;48.550;8.822;2023-02-17T10:17:04;0.90;;;0.80;;
8419;SDS011;4247;48.550;8.822;2023-02-17T10:19:36;1.60;;;1.07;;
8419;SDS011;4247;48.550;8.822;2023-02-17T10:22:11;3.23;;;1.30;;
8419;SDS011;4247;48.550;8.822;2023-02-17T10:24:42;0.70;;;0.70;;
8419;SDS011;4247;48.550;8.822;2023-02-17T10:27:16;1.43;;;0.70;;
8419;SDS011;4247;48.550;8.822;2023-02-17T10:29:51;1.80;;;0.93;;
8419;SDS011;4247;48.550;8.822;2023-02-17T10:32:29;0.70;;;0.70;;
8419;SDS011;4247;48.550;8.822;2023-02-17T10:37:53;1.20;;;1.10;;
8419;SDS011;4247;48.550;8.822;2023-02-17T10:40:27;2.73;;;1.00;;
8419;SDS011;4247;48.550;8.822;2023-02-17T10:42:56;1.70;;;0.90;;
8419;SDS011;4247;48.550;8.822;2023-02-17T10:45:26;2.20;;;1.13;;
8419;SDS011;4247;48.550;8.822;2023-02-17T10:48:00;1.77;;;0.70;;
8419;SDS011;4247;48.550;8.822;2023-02-17T10:50:31;2.20;;;0.90;;
8419;SDS011;4247;48.550;8.822;2023-02-17T10:53:00;2.17;;;1.27;;
8419;SDS011;4247;48.550;8.822;2023-02-17T10:55:40;1.30;;;0.80;;
8419;SDS011;4247;48.550;8.822;2023-02-17T10:58:18;4.73;;;1.07;;
8419;SDS011;4247;48.550;8.822;2023-02-17T11:00:48;1.40;;;1.00;;
8419;SDS011;4247;48.550;8.822;2023-02-17T11:03:21;1.77;;;1.30;;
8419;SDS011;4247;48.550;8.822;2023-02-17T11:05:53;1.50;;;1.10;;
8419;SDS011;4247;48.550;8.822;2023-02-17T11:08:26;3.40;;;1.07;;
8419;SDS011;4247;48.550;8.822;2023-02-17T11:11:00;0.80;;;0.70;;
8419;SDS011;4247;48.550;8.822;2023-02-17T11:13:31;3.20;;;1.03;;
8419;SDS011;4247;48.550;8.822;2023-02-17T11:16:02;1.37;;;1.00;;
8419;SDS011;4247;48.550;8.822;2023-02-17T11:18:30;1.97;;;0.97;;
8419;SDS011;4247;48.550;8.822;2023-02-17T11:21:04;1.00;;;0.80;;
8419;SDS011;4247;48.550;8.822;2023-02-17T11:23:35;2.63;;;1.20;;
8419;SDS011;4247;48.550;8.822;2023-02-17T11:26:16;1.17;;;0.83;;
8419;SDS011;4247;48.550;8.822;2023-02-17T11:28:48;0.80;;;0.80;;
8419;SDS011;4247;48.550;8.822;2023-02-17T11:31:20;1.00;;;0.70;;
8419;SDS011;4247;48.550;8.822;2023-02-17T11:33:49;2.07;;;0.97;;
8419;SDS011;4247;48.550;8.822;2023-02-17T11:36:23;1.27;;;0.70;;
8419;SDS011;4247;48.550;8.822;2023-02-17T11:39:19;1.40;;;0.67;;
8419;SDS011;4247;48.550;8.822;2023-02-17T11:41:50;1.20;;;0.60;;
8419;SDS011;4247;48.550;8.822;2023-02-17T11:44:23;0.50;;;0.50;;
8419;SDS011;4247;48.550;8.822;2023-02-17T11:46:54;0.90;;;0.50;;
8419;SDS011;4247;48.550;8.822;2023-02-17T11:49:43;0.60;;;0.60;;
8419;SDS011;4247;48.550;8.822;2023-02-17T11:52:33;0.57;;;0.50;;
8419;SDS011;4247;48.550;8.822;2023-02-17T11:55:18;0.80;;;0.60;;
8419;SDS011;4247;48.550;8.822;2023-02-17T11:57:58;1.17;;;0.60;;
8419;SDS011;4247;48.550;8.822;2023-02-17T12:00:41;2.03;;;0.80;;
8419;SDS011;4247;48.550;8.822;2023-02-17T12:06:10;4.93;;;1.00;;
8419;SDS011;4247;48.550;8.822;2023-02-17T12:08:46;1.20;;;0.50;;
8419;SDS011;4247;48.550;8.822;2023-02-17T12:11:28;1.43;;;0.50;;
8419;SDS011;4247;48.550;8.822;2023-02-17T12:14:06;1.77;;;0.80;;
8419;SDS011;4247;48.550;8.822;2023-02-17T12:16:53;2.70;;;0.77;;
8419;SDS011;4247;48.550;8.822;2023-02-17T12:19:30;2.97;;;0.90;;
8419;SDS011;4247;48.550;8.822;2023-02-17T12:22:11;4.20;;;1.17;;
8419;SDS011;4247;48.550;8.822;2023-02-17T12:24:57;1.17;;;0.80;;
8419;SDS011;4247;48.550;8.822;2023-02-17T12:27:44;2.97;;;0.90;;
8419;SDS011;4247;48.550;8.822;2023-02-17T12:30:25;0.50;;;0.50;;
8419;SDS011;4247;48.550;8.822;2023-02-17T12:33:11;1.13;;;0.40;;
8419;SDS011;4247;48.550;8.822;2023-02-17T12:35:49;1.23;;;0.50;;
8419;SDS011;4247;48.550;8.822;2023-02-17T12:38:25;0.60;;;0.50;;
8419;SDS011;4247;48.550;8.822;2023-02-17T12:40:59;1.13;;;0.80;;
8419;SDS011;4247;48.550;8.822;2023-02-17T12:43:37;4.77;;;0.63;;
8419;SDS011;4247;48.550;8.822;2023-02-17T12:46:09;0.70;;;0.40;;
8419;SDS011;4247;48.550;8.822;2023-02-17T12:48:41;1.20;;;0.60;;
8419;SDS011;4247;48.550;8.822;2023-02-17T12:51:14;0.50;;;0.50;;
8419;SDS011;4247;48.550;8.822;2023-02-17T12:53:47;2.10;;;0.43;;
8419;SDS011;4247;48.550;8.822;2023-02-17T12:56:32;0.83;;;0.70;;
8419;SDS011;4247;48.550;8.822;2023-02-17T12:59:13;0.50;;;0.50;;
8419;SDS011;4247;48.550;8.822;2023-02-17T13:01:48;1.40;;;0.60;;
8419;SDS011;4247;48.550;8.822;2023-02-17T13:04:21;0.70;;;0.70;;
8419;SDS011;4247;48.550;8.822;2023-02-17T13:06:52;0.53;;;0.50;;
8419;SDS011;4247;48.550;8.822;2023-02-17T13:09:29;0.50;;;0.50;;
8419;SDS011;4247;48.550;8.822;2023-02-17T13:12:09;0.87;;;0.60;;
8419;SDS011;4247;48.550;8.822;2023-02-17T13:14:44;0.93;;;0.53;;
8419;SDS011;4247;48.550;8.822;2023-02-17T13:17:21;1.00;;;0.60;;
8419;SDS011;4247;48.550;8.822;2023-02-17T13:19:59;2.23;;;0.60;;
8419;SDS011;4247;48.550;8.822;2023-02-17T13:22:30;0.67;;;0.50;;
8419;SDS011;4247;48.550;8.822;2023-02-17T13:24:57;0.50;;;0.50;;
8419;SDS011;4247;48.550;8.822;2023-02-17T13:27:30;1.57;;;0.57;;
8419;SDS011;4247;48.550;8.822;2023-02-17T13:30:03;0.80;;;0.60;;
8419;SDS011;4247;48.550;8.822;2023-02-17T13:32:34;3.17;;;0.67;;
8419;SDS011;4247;48.550;8.822;2023-02-17T13:35:04;2.00;;;0.90;;
8419;SDS011;4247;48.550;8.822;2023-02-17T13:37:39;1.57;;;0.80;;
8419;SDS011;4247;48.550;8.822;2023-02-17T13:43:08;2.20;;;0.90;;
8419;SDS011;4247;48.550;8.822;2023-02-17T13:45:46;1.60;;;0.97;;
8419;SDS011;4247;48.550;8.822;2023-02-17T13:48:21;1.80;;;1.13;;
8419;SDS011;4247;48.550;8.822;2023-02-17T13:50:50;1.07;;;0.97;;
8419;SDS011;4247;48.550;8.822;2023-02-17T13:53:20;0.87;;;0.80;;
8419;SDS011;4247;48.550;8.822;2023-02-17T13:55:49;1.00;;;0.90;;
8419;SDS011;4247;48.550;8.822;2023-02-17T13:58:21;1.33;;;0.90;;
8419;SDS011;4247;48.550;8.822;2023-02-17T14:00:51;1.70;;;1.00;;
8419;SDS011;4247;48.550;8.822;2023-02-17T14:03:21;1.27;;;1.17;;
8419;SDS011;4247;48.550;8.822;2023-02-17T14:05:50;1.77;;;0.70;;
8419;SDS011;4247;48.550;8.822;2023-02-17T14:08:22;0.87;;;0.87;;
8419;SDS011;4247;48.550;8.822;2023-02-17T14:11:16;1.50;;;0.90;;
8419;SDS011;4247;48.550;8.822;2023-02-17T14:13:45;2.70;;;0.90;;
8419;SDS011;4247;48.550;8.822;2023-02-17T14:16:26;3.50;;;1.00;;
8419;SDS011;4247;48.550;8.822;2023-02-17T14:19:02;1.80;;;0.90;;
8419;SDS011;4247;48.550;8.822;2023-02-17T14:21:31;1.03;;;0.73;;
8419;SDS011;4247;48.550;8.822;2023-02-17T14:24:00;2.60;;;1.30;;
8419;SDS011;4247;48.550;8.822;2023-02-17T14:26:30;5.53;;;1.00;;
8419;SDS011;4247;48.550;8.822;2023-02-17T14:28:59;5.77;;;1.27;;
8419;SDS011;4247;48.550;8.822;2023-02-17T14:31:37;0.97;;;0.70;;
8419;SDS011;4247;48.550;8.822;2023-02-17T14:34:06;1.47;;;0.80;;
8419;SDS011;4247;48.550;8.822;2023-02-17T14:36:38;1.63;;;0.97;;
8419;SDS011;4247;48.550;8.822;2023-02-17T14:39:06;2.37;;;0.87;;
8419;SDS011;4247;48.550;8.822;2023-02-17T14:41:38;4.37;;;1.17;;
8419;SDS011;4247;48.550;8.822;2023-02-17T14:44:05;2.00;;;1.00;;
8419;SDS011;4247;48.550;8.822;2023-02-17T14:46:33;3.53;;;1.30;;
8419;SDS011;4247;48.550;8.822;2023-02-17T14:49:02;0.70;;;0.60;;
8419;SDS011;4247;48.550;8.822;2023-02-17T14:51:30;2.57;;;1.07;;
8419;SDS011;4247;48.550;8.822;2023-02-17T14:54:03;3.37;;;0.97;;
8419;SDS011;4247;48.550;8.822;2023-02-17T14:56:40;1.50;;;1.27;;
8419;SDS011;4247;48.550;8.822;2023-02-17T14:59:10;1.40;;;0.67;;
8419;SDS011;4247;48.550;8.822;2023-02-17T15:01:36;2.77;;;1.30;;
8419;SDS011;4247;48.550;8.822;2023-02-17T15:04:06;3.93;;;1.10;;
8419;SDS011;4247;48.550;8.822;2023-02-17T15:06:35;1.33;;;1.10;;
8419;SDS011;4247;48.550;8.822;2023-02-17T15:09:07;1.40;;;0.90;;
8419;SDS011;4247;48.550;8.822;2023-02-17T15:11:37;1.67;;;0.77;;
8419;SDS011;4247;48.550;8.822;2023-02-17T15:14:08;0.90;;;0.70;;
8419;SDS011;4247;48.550;8.822;2023-02-17T15:16:37;1.10;;;0.90;;
8419;SDS011;4247;48.550;8.822;2023-02-17T15:19:09;1.63;;;0.70;;
8419;SDS011;4247;48.550;8.822;2023-02-17T15:21:42;1.97;;;0.97;;
8419;SDS011;4247;48.550;8.822;2023-02-17T15:24:15;1.93;;;0.77;;
8419;SDS011;4247;48.550;8.822;2023-02-17T15:26:46;0.50;;;0.50;;
8419;SDS011;4247;48.550;8.822;2023-02-17T15:29:14;0.50;;;0.50;;
8419;SDS011;4247;48.550;8.822;2023-02-17T15:31:44;0.77;;;0.73;;
8419;SDS011;4247;48.550;8.822;2023-02-17T15:34:14;3.50;;;1.00;;
8419;SDS011;4247;48.550;8.822;2023-02-17T15:36:42;5.77;;;1.10;;
8419;SDS011;4247;48.550;8.822;2023-02-17T15:39:09;0.80;;;0.80;;
8419;SDS011;4247;48.550;8.822;2023-02-17T15:41:40;4.80;;;0.80;;
8419;SDS011;4247;48.550;8.822;2023-02-17T15:44:11;1.73;;;0.90;;
8419;SDS011;4247;48.550;8.822;2023-02-17T15:46:45;1.80;;;1.10;;
8419;SDS011;4247;48.550;8.822;2023-02-17T15:49:17;1.57;;;0.90;;
8419;SDS011;4247;48.550;8.822;2023-02-17T15:51:44;2.07;;;0.77;;
8419;SDS011;4247;48.550;8.822;2023-02-17T15:54:12;1.23;;;0.83;;